Portada
METAR-TAF:

METAR-TAF

Aeroports :

Wajima, Japó

latitud: 37-17-36N, longitud: 136-57-44E, altitud: 219 m

Observació

L'informe es va fer fa 7 hores i 35 minuts, a les 10:00 UTC
Vent 5 kt del Nord-Est
Temperatura 21°C
Humitat 83%
Pressió 1010 hPa
Visibilitat 10 km o més
Escasses núvols a una alçada de 3000 ft
Cel ennuvolat

METAR: RJNW 241000Z 05005KT 9999 FEW030 BKN/// 21/18 Q1010

Hora: 02:35 (17:35 UTC)


TAF: manca

Observacions i pronòstics meteorològics de més de 4000 aeroports (METAR i TAF).

Les estacions disponibles són els punts grocs i vermells al mapa.

Posi el ratolí al punt desitjat per veure el nom de l'estació.

Feu clic per veure les observacions i els pronòstics meteorològics.

Per canviar el mapa: feu clic els botons verds amb una creu de color negre per apropar; al botó verd amb un guió per allunyar la imatge; o en les fletxes verdes per a mapes adjacents.


METAR-TAF: